Time;durP1;ratioP1;P1;durP2;ratioP2;P2;SDS_P1;SDS_P2;PMS_P1;PMS_P2;Temp;Humidity;BMP_temperature;BMP_pressure;BME280_temperature;BME280_humidity;BME280_pressure;Samples;Min_cycle;Max_cycle;Signal;HPM_P1;HPM_P2
2021/12/18 00:01:04;;;;;;;24.35;11.07;;;;;;;7.08;100.00;103885.56;5046251;28;20033;-78
2021/12/18 00:03:29;;;;;;;24.20;11.00;;;;;;;7.09;100.00;103884.66;5046410;28;20033;-77
2021/12/18 00:05:55;;;;;;;24.13;10.63;;;;;;;7.07;99.73;103883.78;5064841;22;20422;-80
2021/12/18 00:08:20;;;;;;;23.65;11.05;;;;;;;7.07;100.00;103879.34;5026313;28;20599;-79
2021/12/18 00:10:46;;;;;;;26.83;10.80;;;;;;;7.10;100.00;103884.66;5025295;28;20102;-79
2021/12/18 00:13:12;;;;;;;22.73;9.98;;;;;;;7.08;100.00;103875.72;5040232;28;20453;-80
2021/12/18 00:15:38;;;;;;;25.00;9.85;;;;;;;7.06;100.00;103880.22;5017978;28;20491;-79
2021/12/18 00:18:03;;;;;;;24.25;10.52;;;;;;;7.08;100.00;103875.72;5044444;28;20029;-79
2021/12/18 00:20:29;;;;;;;23.85;9.65;;;;;;;7.09;100.00;103877.50;5011627;28;20169;-79
2021/12/18 00:22:55;;;;;;;24.77;10.05;;;;;;;7.09;100.00;103874.84;5013725;28;20555;-79
2021/12/18 00:25:21;;;;;;;27.70;10.85;;;;;;;7.11;100.00;103880.16;5023337;28;20068;-79
2021/12/18 00:27:47;;;;;;;23.08;11.10;;;;;;;7.11;100.00;103869.47;5016534;28;20029;-80
2021/12/18 00:30:12;;;;;;;25.88;10.80;;;;;;;7.09;100.00;103866.81;5022989;28;20040;-80
2021/12/18 00:32:38;;;;;;;23.30;9.95;;;;;;;7.12;100.00;103863.22;5033613;28;20038;-80
2021/12/18 00:35:04;;;;;;;24.25;11.38;;;;;;;7.10;100.00;103865.00;5011852;28;20484;-79
2021/12/18 00:37:29;;;;;;;23.63;9.63;;;;;;;7.10;100.00;103867.69;5012197;28;20053;-79
2021/12/18 00:39:57;;;;;;;22.55;9.38;;;;;;;7.11;100.00;103858.78;5012366;28;20083;-79
2021/12/18 00:45:01;;;;;;;20.92;8.75;;;;;;;7.08;100.00;103864.16;5031251;28;20065;-79
2021/12/18 00:47:26;;;;;;;23.27;8.20;;;;;;;7.08;100.00;103857.00;5013714;28;20082;-79
2021/12/18 00:49:52;;;;;;;22.95;8.30;;;;;;;7.05;100.00;103853.50;5029475;28;20033;-79
2021/12/18 00:52:17;;;;;;;21.98;8.85;;;;;;;7.04;100.00;103857.94;5029529;28;20033;-79
2021/12/18 00:54:42;;;;;;;21.08;8.23;;;;;;;7.04;100.00;103857.06;5029784;28;20030;-79
2021/12/18 00:57:07;;;;;;;22.13;8.10;;;;;;;7.04;99.93;103851.72;5030736;28;20523;-79
2021/12/18 00:59:34;;;;;;;19.88;7.28;;;;;;;7.04;100.00;103851.72;5012639;28;20017;-79
2021/12/18 01:02:00;;;;;;;22.23;7.15;;;;;;;7.04;99.95;103851.72;5030820;28;20029;-79
2021/12/18 01:04:26;;;;;;;21.88;8.00;;;;;;;7.00;99.73;103851.75;5007492;28;20481;-79
2021/12/18 01:06:51;;;;;;;20.92;7.68;;;;;;;7.00;99.70;103848.19;4992934;28;20053;-79
2021/12/18 01:09:20;;;;;;;24.88;8.38;;;;;;;7.01;99.63;103844.59;5005248;28;20044;-79
2021/12/18 01:11:47;;;;;;;20.20;7.37;;;;;;;7.00;99.32;103846.41;4992438;28;20388;-79
2021/12/18 01:24:59;;;;;;;18.40;6.47;;;;;;;6.98;99.50;103844.63;5008339;28;20186;-79
2021/12/18 01:27:24;;;;;;;21.25;7.60;;;;;;;6.98;98.84;103841.97;5011511;28;20113;-79
2021/12/18 01:29:50;;;;;;;19.27;6.90;;;;;;;6.97;98.70;103840.22;5017507;28;20041;-79
2021/12/18 01:32:15;;;;;;;20.45;6.57;;;;;;;6.95;99.18;103836.66;5010315;28;20085;-79
2021/12/18 01:34:41;;;;;;;23.63;6.75;;;;;;;6.97;99.65;103845.56;4992408;28;20944;-79
2021/12/18 01:37:06;;;;;;;20.17;6.43;;;;;;;6.94;99.12;103841.13;5009190;28;20141;-79
2021/12/18 01:39:32;;;;;;;22.42;7.13;;;;;;;6.95;98.99;103845.53;5011939;28;20045;-79
2021/12/18 01:44:52;;;;;;;20.25;7.47;;;;;;;6.97;99.36;103851.78;5010364;28;20041;-79
2021/12/18 01:52:37;;;;;;;20.10;6.45;;;;;;;6.95;98.99;103858.03;5022182;28;20056;-80
2021/12/18 01:55:03;;;;;;;20.52;7.35;;;;;;;6.96;98.93;103859.81;5011101;28;20034;-79
2021/12/18 01:57:28;;;;;;;19.75;5.97;;;;;;;6.95;98.91;103858.03;4976497;28;20101;-80
2021/12/18 01:59:54;;;;;;;19.77;6.18;;;;;;;6.94;98.85;103859.84;4993869;28;20029;-79
2021/12/18 02:02:20;;;;;;;20.25;7.22;;;;;;;6.94;98.82;103865.19;5020542;28;20099;-82
2021/12/18 02:04:46;;;;;;;20.05;6.80;;;;;;;6.96;99.16;103865.16;5022871;28;20129;-81
2021/12/18 02:07:11;;;;;;;18.98;6.30;;;;;;;6.97;98.71;103869.63;4985174;28;20137;-81
2021/12/18 02:10:03;;;;;;;18.17;6.47;;;;;;;6.95;98.72;103869.59;4987128;28;20053;-82
2021/12/18 02:12:30;;;;;;;19.17;6.35;;;;;;;6.95;98.70;103864.25;4990441;28;20096;-82
2021/12/18 02:22:49;;;;;;;21.40;6.78;;;;;;;6.93;98.84;103852.72;4992520;28;20038;-81
2021/12/18 02:25:15;;;;;;;22.08;8.00;;;;;;;6.92;98.95;103858.06;4987212;28;20030;-81
2021/12/18 02:27:40;;;;;;;20.50;7.15;;;;;;;6.91;98.73;103853.63;4988926;28;20103;-82
2021/12/18 02:30:07;;;;;;;23.08;8.45;;;;;;;6.91;99.00;103858.97;4991021;28;20045;-81
2021/12/18 02:32:33;;;;;;;21.55;7.03;;;;;;;6.93;99.23;103850.03;5002974;28;20033;-82
2021/12/18 02:35:03;;;;;;;21.20;7.18;;;;;;;6.93;99.25;103846.47;5002579;28;20393;-82
2021/12/18 02:37:29;;;;;;;22.23;7.72;;;;;;;6.92;99.13;103848.25;4987435;28;20069;-82
2021/12/18 02:42:22;;;;;;;22.40;8.18;;;;;;;6.92;98.98;103842.03;4989826;28;20367;-82
2021/12/18 02:44:48;;;;;;;20.80;7.00;;;;;;;6.89;98.95;103845.59;4990372;28;20398;-82
2021/12/18 02:47:14;;;;;;;21.70;8.23;;;;;;;6.90;99.43;103836.69;4988656;28;20038;-82
2021/12/18 02:49:45;;;;;;;20.00;7.22;;;;;;;6.88;99.03;103835.84;4989451;28;20030;-82
2021/12/18 02:52:10;;;;;;;22.13;8.35;;;;;;;6.89;99.60;103840.25;4986776;28;20088;-82
2021/12/18 02:54:40;;;;;;;19.10;7.32;;;;;;;6.89;99.29;103836.72;4989026;28;20153;-82
2021/12/18 02:57:05;;;;;;;22.23;8.43;;;;;;;6.87;99.27;103835.81;4973492;28;20056;-82
2021/12/18 02:59:51;;;;;;;23.35;8.88;;;;;;;6.88;99.45;103827.81;4987944;28;20038;-82
2021/12/18 03:02:19;;;;;;;22.77;7.85;;;;;;;6.86;99.44;103826.94;5004033;28;20056;-82
2021/12/18 03:04:49;;;;;;;21.05;7.95;;;;;;;6.86;99.51;103829.59;4987662;28;20022;-82
2021/12/18 03:07:16;;;;;;;;;;;;;;;6.90;99.71;103823.31;4985083;28;20039;-82
2021/12/18 03:25:33;;;;;;;20.95;7.63;;;;;;;6.86;99.32;103810.00;5008725;28;20508;-81
2021/12/18 03:27:59;;;;;;;21.30;8.38;;;;;;;6.85;99.17;103809.09;5003409;28;20030;-82
2021/12/18 03:30:25;;;;;;;22.83;7.95;;;;;;;6.83;99.05;103811.78;4999370;28;20064;-81
2021/12/18 03:32:51;;;;;;;21.30;8.35;;;;;;;6.83;99.14;103819.81;5006576;28;20029;-81
2021/12/18 03:35:17;;;;;;;22.15;8.23;;;;;;;6.81;99.15;103818.97;4990601;28;20401;-82
2021/12/18 03:37:44;;;;;;;22.73;8.57;;;;;;;6.83;99.27;103816.25;4990362;28;20122;-82
2021/12/18 03:40:12;;;;;;;21.58;8.02;;;;;;;6.83;99.44;103816.25;4990438;28;20041;-82
2021/12/18 03:42:38;;;;;;;19.80;7.45;;;;;;;6.83;99.33;103816.25;5007857;28;20033;-82
2021/12/18 03:45:05;;;;;;;22.50;8.18;;;;;;;6.81;99.36;103826.09;5009207;28;20536;-82
2021/12/18 03:47:31;;;;;;;23.25;9.02;;;;;;;6.83;99.52;103816.25;4990556;28;20493;-82
2021/12/18 03:49:56;;;;;;;21.42;8.07;;;;;;;6.81;99.04;103818.97;4990969;28;20105;-81
2021/12/18 03:52:22;;;;;;;23.02;8.30;;;;;;;6.80;99.31;103818.97;5001474;28;20034;-82
2021/12/18 03:54:47;;;;;;;20.98;8.27;;;;;;;6.82;99.47;103831.44;5010459;28;20037;-82
2021/12/18 03:57:13;;;;;;;19.27;7.13;;;;;;;6.82;99.57;103825.19;4995582;28;20036;-82
2021/12/18 03:59:38;;;;;;;22.00;7.80;;;;;;;6.79;99.27;103830.56;4994365;28;20168;-82
2021/12/18 04:02:03;;;;;;;22.98;8.27;;;;;;;6.79;99.49;103820.78;5016115;28;20500;-82
2021/12/18 04:04:29;;;;;;;23.52;8.38;;;;;;;6.78;99.60;103820.78;5011616;28;20022;-82
2021/12/18 04:06:54;;;;;;;20.75;7.32;;;;;;;6.79;99.48;103826.13;5009406;28;20034;-82
2021/12/18 04:09:19;;;;;;;22.02;8.10;;;;;;;6.77;99.36;103822.56;5011022;28;20038;-82
2021/12/18 04:11:45;;;;;;;22.70;8.55;;;;;;;6.78;99.69;103826.13;5019536;28;20047;-82
2021/12/18 04:14:11;;;;;;;20.17;7.30;;;;;;;6.77;99.29;103822.56;4994239;28;20125;-82
2021/12/18 04:16:37;;;;;;;20.10;7.57;;;;;;;6.78;99.42;103823.47;5012039;28;20041;-82
2021/12/18 04:19:04;;;;;;;23.30;7.57;;;;;;;6.79;99.77;103830.56;5011643;28;20036;-82
2021/12/18 04:21:30;;;;;;;21.52;7.30;;;;;;;6.75;99.30;103818.13;5017737;28;20036;-82
2021/12/18 04:23:56;;;;;;;21.23;7.90;;;;;;;6.75;99.75;103819.03;5021177;28;20425;-82
2021/12/18 04:26:21;;;;;;;21.35;6.93;;;;;;;6.73;99.74;103825.28;4994966;28;20037;-82
2021/12/18 04:28:46;;;;;;;22.95;7.63;;;;;;;6.76;99.63;103830.59;5001908;28;20041;-82
2021/12/18 04:31:12;;;;;;;21.63;8.15;;;;;;;6.73;99.71;103819.94;5029312;28;20033;-82
2021/12/18 04:33:37;;;;;;;21.20;8.07;;;;;;;6.72;99.86;103823.50;5001299;28;20022;-82
2021/12/18 04:36:03;;;;;;;21.83;7.50;;;;;;;6.71;99.66;103817.28;4993698;28;20116;-82
2021/12/18 04:38:29;;;;;;;23.77;7.30;;;;;;;6.71;99.94;103816.41;4993332;28;20033;-82
2021/12/18 04:40:54;;;;;;;21.92;8.15;;;;;;;6.71;99.97;103825.28;4992895;28;20378;-82
2021/12/18 04:43:19;;;;;;;21.08;7.32;;;;;;;6.71;99.64;103822.63;5012199;28;20033;-82
2021/12/18 04:45:44;;;;;;;20.13;7.60;;;;;;;6.69;99.53;103828.88;5017481;28;20043;-82
2021/12/18 04:48:10;;;;;;;19.70;7.10;;;;;;;6.70;99.83;103836.00;5009516;28;20022;-81
2021/12/18 04:50:35;;;;;;;19.75;8.00;;;;;;;6.70;99.94;103833.31;5011264;28;20060;-82
2021/12/18 04:53:00;;;;;;;18.25;6.78;;;;;;;6.70;100.00;103830.66;4995731;28;20061;-82
2021/12/18 04:55:26;;;;;;;23.83;8.45;;;;;;;6.73;100.00;103833.28;4991992;28;20171;-82
2021/12/18 04:57:52;;;;;;;20.83;7.05;;;;;;;6.70;100.00;103836.88;5009775;28;20045;-82
2021/12/18 05:00:20;;;;;;;22.55;7.88;;;;;;;6.69;100.00;103835.13;5002071;28;20040;-82
2021/12/18 05:02:48;;;;;;;21.77;7.60;;;;;;;6.69;100.00;103828.88;4992481;28;20084;-82
2021/12/18 05:05:14;;;;;;;20.42;7.22;;;;;;;6.73;100.00;103835.97;5011061;28;20037;-82
2021/12/18 05:07:41;;;;;;;21.92;7.53;;;;;;;6.70;99.98;103838.66;4992184;28;20046;-82
2021/12/18 05:10:08;;;;;;;19.77;6.82;;;;;;;6.70;100.00;103838.66;4992555;28;20428;-81
2021/12/18 05:12:34;;;;;;;20.55;6.80;;;;;;;6.68;99.95;103843.13;4994137;28;20034;-82
2021/12/18 05:14:59;;;;;;;19.73;7.53;;;;;;;6.68;99.94;103843.13;4991968;28;20108;-82
2021/12/18 05:17:24;;;;;;;21.42;7.32;;;;;;;6.67;100.00;103842.25;5015738;28;20025;-82
2021/12/18 05:19:50;;;;;;;22.23;7.47;;;;;;;6.66;100.00;103843.13;5015009;28;20097;-81
2021/12/18 05:22:15;;;;;;;22.98;7.85;;;;;;;6.63;100.00;103836.06;4999274;28;20084;-82
2021/12/18 05:24:40;;;;;;;19.05;6.60;;;;;;;6.66;100.00;103845.81;5010544;28;20045;-82
2021/12/18 05:27:06;;;;;;;21.13;7.32;;;;;;;6.63;100.00;103838.72;5010716;28;20017;-82
2021/12/18 05:29:31;;;;;;;21.30;7.70;;;;;;;6.64;100.00;103840.47;4997122;28;20126;-82
2021/12/18 05:31:57;;;;;;;22.20;8.75;;;;;;;6.64;100.00;103842.28;4997664;28;20124;-82
2021/12/18 05:34:25;;;;;;;23.23;8.40;;;;;;;6.64;100.00;103847.63;4973121;28;20026;-82
2021/12/18 05:39:26;;;;;;;24.80;8.80;;;;;;;6.62;100.00;103839.63;5009093;28;20042;-82
2021/12/18 05:41:52;;;;;;;22.33;7.85;;;;;;;6.64;100.00;103851.16;4992728;28;20045;-82
2021/12/18 05:44:20;;;;;;;23.80;8.98;;;;;;;6.61;100.00;103844.97;4992513;28;20029;-82
2021/12/18 05:46:46;;;;;;;22.25;8.77;;;;;;;6.62;100.00;103838.75;4994286;28;20465;-81
2021/12/18 05:49:12;;;;;;;20.55;8.13;;;;;;;6.62;100.00;103834.28;4982144;28;20041;-82
2021/12/18 05:51:38;;;;;;;23.65;8.20;;;;;;;6.65;100.00;103839.59;5011088;28;20389;-82
2021/12/18 05:54:04;;;;;;;24.23;9.27;;;;;;;6.64;100.00;103843.16;5010059;28;20040;-82
2021/12/18 05:56:30;;;;;;;25.45;10.55;;;;;;;6.62;100.00;103844.97;4992734;28;20030;-82
2021/12/18 05:58:56;;;;;;;23.35;9.45;;;;;;;6.65;100.00;103842.25;5010082;28;20026;-82
2021/12/18 06:01:21;;;;;;;25.58;10.45;;;;;;;6.65;100.00;103844.94;4997796;28;20535;-82
2021/12/18 06:03:47;;;;;;;24.52;9.52;;;;;;;6.63;100.00;103849.41;5004045;28;20526;-82
2021/12/18 06:06:12;;;;;;;24.80;9.30;;;;;;;6.64;100.00;103845.81;4991074;28;20068;-82
2021/12/18 06:08:38;;;;;;;25.33;9.85;;;;;;;6.62;100.00;103850.31;4989665;28;20052;-81
2021/12/18 06:11:10;;;;;;;24.45;9.25;;;;;;;6.62;100.00;103844.09;4979236;28;20033;-82
2021/12/18 06:13:35;;;;;;;23.08;8.32;;;;;;;6.63;100.00;103846.75;4982050;28;20401;-82
2021/12/18 06:16:05;;;;;;;26.08;8.75;;;;;;;6.59;100.00;103845.00;4992125;28;20125;-82
2021/12/18 06:18:31;;;;;;;24.02;9.13;;;;;;;6.61;100.00;103843.19;5006429;28;20052;-83
2021/12/18 06:20:56;;;;;;;24.27;10.30;;;;;;;6.62;100.00;103842.28;5013734;28;20061;-82
2021/12/18 06:23:21;;;;;;;23.48;9.15;;;;;;;6.60;100.00;103844.09;4995781;28;20034;-82
2021/12/18 06:25:46;;;;;;;21.30;8.30;;;;;;;6.60;100.00;103844.09;4991998;28;20395;-82
2021/12/18 06:28:11;;;;;;;20.58;7.57;;;;;;;6.58;100.00;103837.00;4991777;28;20030;-82
2021/12/18 06:30:37;;;;;;;21.00;7.72;;;;;;;6.60;100.00;103846.78;4992739;28;20033;-82
2021/12/18 06:33:02;;;;;;;24.98;8.65;;;;;;;6.58;100.00;103848.56;5012412;28;20466;-82
2021/12/18 06:35:27;;;;;;;22.98;8.90;;;;;;;6.58;100.00;103843.22;4990761;28;20030;-82
2021/12/18 06:37:53;;;;;;;26.00;9.00;;;;;;;6.59;100.00;103842.31;4991522;28;20030;-82
2021/12/18 06:40:18;;;;;;;25.75;10.02;;;;;;;6.59;100.00;103845.00;5012504;28;20442;-82
2021/12/18 06:42:43;;;;;;;22.55;7.60;;;;;;;6.57;100.00;103841.44;4991924;28;20422;-82
2021/12/18 06:45:10;;;;;;;22.42;7.93;;;;;;;6.58;100.00;103840.53;5010167;28;20088;-82
2021/12/18 06:47:36;;;;;;;23.80;8.68;;;;;;;6.54;100.00;103836.13;5009153;28;20105;-82
2021/12/18 06:50:02;;;;;;;22.88;7.05;;;;;;;6.54;100.00;103841.47;5007774;28;20354;-82
2021/12/18 06:52:27;;;;;;;22.13;8.30;;;;;;;6.53;100.00;103834.38;4992475;28;20038;-82
2021/12/18 06:54:52;;;;;;;24.65;9.98;;;;;;;6.54;100.00;103833.44;5009383;28;20022;-82
2021/12/18 06:57:22;;;;;;;23.00;8.73;;;;;;;6.59;100.00;103836.09;4991420;28;20030;-82
2021/12/18 06:59:47;;;;;;;24.20;8.32;;;;;;;6.58;100.00;103843.22;4998039;28;20032;-81
2021/12/18 07:02:13;;;;;;;22.02;8.55;;;;;;;6.57;100.00;103843.22;4994827;28;20026;-82
2021/12/18 07:04:38;;;;;;;25.40;9.02;;;;;;;6.58;100.00;103832.53;4989583;28;20195;-82
2021/12/18 07:07:03;;;;;;;23.63;9.07;;;;;;;6.55;100.00;103831.69;4985176;28;20042;-82
2021/12/18 07:09:29;;;;;;;22.98;8.30;;;;;;;6.56;100.00;103829.00;4987905;28;20042;-82
2021/12/18 07:11:54;;;;;;;24.40;8.45;;;;;;;6.58;100.00;103840.53;4990708;28;20069;-82
2021/12/18 07:14:19;;;;;;;24.30;8.85;;;;;;;6.56;100.00;103831.66;4988445;28;20038;-82
2021/12/18 07:16:44;;;;;;;22.75;7.63;;;;;;;6.58;100.00;103834.31;4989327;28;20037;-82
2021/12/18 07:19:10;;;;;;;19.98;7.30;;;;;;;6.57;100.00;103830.75;4987711;28;20035;-82
2021/12/18 07:21:35;;;;;;;20.55;7.13;;;;;;;6.59;100.00;103828.97;4986669;28;20164;-83
2021/12/18 07:24:00;;;;;;;19.00;6.28;;;;;;;6.59;100.00;103831.63;4987525;28;20129;-82
2021/12/18 07:26:26;;;;;;;23.08;7.68;;;;;;;6.58;100.00;103828.97;4988470;28;20022;-82
2021/12/18 07:28:51;;;;;;;22.67;7.47;;;;;;;6.56;100.00;103831.66;4988660;28;20056;-82
2021/12/18 07:31:16;;;;;;;23.02;6.63;;;;;;;6.56;100.00;103833.44;5002542;28;20408;-82
2021/12/18 07:33:43;;;;;;;22.38;7.05;;;;;;;6.55;100.00;103827.22;4992423;28;20034;-82
2021/12/18 07:36:08;;;;;;;22.42;7.30;;;;;;;6.55;100.00;103834.34;4992180;28;20385;-82
2021/12/18 07:38:35;;;;;;;22.38;6.97;;;;;;;6.52;100.00;103824.56;4987851;28;20030;-82
2021/12/18 07:41:01;;;;;;;21.80;6.85;;;;;;;6.52;100.00;103831.72;4991527;28;20041;-82
2021/12/18 07:43:26;;;;;;;23.00;7.10;;;;;;;6.51;100.00;103846.81;4991394;28;20034;-82
2021/12/18 07:45:51;;;;;;;18.88;6.40;;;;;;;6.54;100.00;103838.78;4991575;28;20128;-82
2021/12/18 07:48:18;;;;;;;21.98;7.68;;;;;;;6.53;100.00;103839.72;4991181;28;20032;-82
2021/12/18 07:50:43;;;;;;;22.58;7.25;;;;;;;6.56;100.00;103849.47;4991946;28;20045;-82
2021/12/18 07:53:08;;;;;;;21.73;6.70;;;;;;;6.58;100.00;103853.91;4993679;28;20038;-82
2021/12/18 07:55:34;;;;;;;20.38;7.45;;;;;;;6.56;100.00;103842.34;4991221;28;20022;-82
2021/12/18 07:57:59;;;;;;;23.58;8.77;;;;;;;6.58;100.00;103843.22;4996240;28;20040;-82
2021/12/18 08:00:24;;;;;;;21.58;8.07;;;;;;;6.59;100.00;103847.66;5009139;28;20068;-82
2021/12/18 08:02:50;;;;;;;22.23;7.82;;;;;;;6.60;100.00;103841.44;4992538;28;20386;-82
2021/12/18 08:05:15;;;;;;;22.95;8.00;;;;;;;6.61;100.00;103845.84;4991354;28;20149;-82
2021/12/18 08:07:41;;;;;;;18.83;6.80;;;;;;;6.63;100.00;103857.44;4990193;28;20161;-82
2021/12/18 08:10:07;;;;;;;22.25;7.93;;;;;;;6.65;100.00;103847.59;4991446;28;20038;-82
2021/12/18 08:12:33;;;;;;;21.50;7.63;;;;;;;6.63;100.00;103849.41;4991773;28;20053;-82
2021/12/18 08:14:58;;;;;;;22.13;7.57;;;;;;;6.66;100.00;103843.13;4991484;28;20466;-81
2021/12/18 08:17:24;;;;;;;21.45;7.05;;;;;;;6.64;100.00;103851.16;4992264;28;20398;-82
2021/12/18 08:19:50;;;;;;;21.55;7.55;;;;;;;6.62;100.00;103852.97;4993226;28;20049;-82
2021/12/18 08:22:15;;;;;;;23.48;9.10;;;;;;;6.63;100.00;103853.84;4991627;28;20057;-82
2021/12/18 08:24:40;;;;;;;23.15;8.20;;;;;;;6.65;100.00;103850.28;4997627;28;20489;-82
2021/12/18 08:27:06;;;;;;;22.10;6.30;;;;;;;6.65;100.00;103844.94;4992999;28;20041;-82
2021/12/18 08:29:31;;;;;;;20.25;6.07;;;;;;;6.66;100.00;103848.47;4998167;28;20061;-82
2021/12/18 08:31:57;;;;;;;19.48;5.57;;;;;;;6.68;100.00;103843.13;4992339;28;20030;-82
2021/12/18 08:34:23;;;;;;;17.63;4.72;;;;;;;6.67;100.00;103849.41;4992349;28;20038;-82
2021/12/18 08:36:49;;;;;;;17.13;5.65;;;;;;;6.67;100.00;103852.06;4993014;28;20089;-82
2021/12/18 08:39:14;;;;;;;15.82;4.70;;;;;;;6.69;100.00;103844.91;4990489;28;20581;-82
2021/12/18 08:41:42;;;;;;;21.10;5.38;;;;;;;6.68;100.00;103840.44;4991382;28;20422;-82
2021/12/18 08:44:07;;;;;;;18.70;5.18;;;;;;;6.67;100.00;103839.56;4985070;28;20031;-81
2021/12/18 08:46:34;;;;;;;14.13;4.50;;;;;;;6.73;100.00;103841.31;4991766;28;20056;-82
2021/12/18 08:48:59;;;;;;;18.80;5.68;;;;;;;6.73;100.00;103849.34;4991264;28;20505;-82
2021/12/18 08:51:24;;;;;;;17.15;4.90;;;;;;;6.74;100.00;103849.31;4980072;28;20215;-82
2021/12/18 08:53:49;;;;;;;17.13;4.88;;;;;;;6.73;100.00;103849.34;4981790;28;20617;-82
2021/12/18 08:56:15;;;;;;;16.45;4.43;;;;;;;6.74;100.00;103840.41;5001708;28;20045;-82
2021/12/18 08:58:40;;;;;;;18.15;5.22;;;;;;;6.77;100.00;103841.25;4996640;28;20026;-82
2021/12/18 09:01:05;;;;;;;19.30;5.57;;;;;;;6.81;100.00;103850.16;4987967;28;20027;-82
2021/12/18 09:03:31;;;;;;;17.98;5.40;;;;;;;6.80;100.00;103851.06;4992296;28;20142;-81
2021/12/18 09:05:56;;;;;;;15.75;4.72;;;;;;;6.82;100.00;103851.91;4995340;28;20844;-82
2021/12/18 09:08:21;;;;;;;15.60;4.22;;;;;;;6.84;100.00;103850.13;5012067;28;20034;-82
2021/12/18 09:10:47;;;;;;;18.10;5.00;;;;;;;6.87;100.00;103841.16;5012412;28;20029;-82
2021/12/18 09:13:12;;;;;;;15.05;4.57;;;;;;;6.88;100.00;103846.53;4994642;28;20018;-82
2021/12/18 09:15:38;;;;;;;17.98;4.95;;;;;;;6.89;100.00;103847.41;4993722;28;20034;-82
2021/12/18 09:18:03;;;;;;;15.35;4.30;;;;;;;6.88;100.00;103846.53;5011445;28;20030;-82
2021/12/18 09:20:28;;;;;;;15.68;4.07;;;;;;;6.94;100.00;103849.13;4993051;28;20486;-82
2021/12/18 09:22:54;;;;;;;15.35;4.03;;;;;;;6.92;100.00;103850.91;5010870;28;20034;-82
2021/12/18 09:25:19;;;;;;;17.67;4.15;;;;;;;6.93;100.00;103844.69;4993408;28;20029;-82
2021/12/18 09:27:44;;;;;;;15.90;4.25;;;;;;;6.96;100.00;103849.13;5011023;28;20029;-82
2021/12/18 09:30:14;;;;;;;16.05;4.68;;;;;;;7.00;100.00;103845.53;4992745;28;20404;-82
2021/12/18 09:32:39;;;;;;;18.15;5.75;;;;;;;7.03;100.00;103849.94;5010931;28;20068;-82
2021/12/18 09:35:05;;;;;;;15.90;4.82;;;;;;;6.99;100.00;103849.97;4992450;28;20212;-82
2021/12/18 09:37:31;;;;;;;16.00;4.47;;;;;;;7.02;100.00;103853.53;4986064;28;20030;-82
2021/12/18 09:39:56;;;;;;;18.85;5.78;;;;;;;7.05;100.00;103853.50;4979341;28;20401;-81
2021/12/18 09:42:22;;;;;;;19.40;5.68;;;;;;;7.03;100.00;103848.16;4991265;28;20034;-82
2021/12/18 09:44:49;;;;;;;20.48;5.68;;;;;;;7.02;100.00;103846.38;4990942;28;20184;-81
2021/12/18 09:47:14;;;;;;;18.58;5.72;;;;;;;7.03;100.00;103844.59;4992526;28;20033;-82
2021/12/18 09:49:40;;;;;;;18.13;5.97;;;;;;;7.05;100.00;103850.81;5011778;28;20401;-82
2021/12/18 09:52:05;;;;;;;19.85;6.13;;;;;;;7.08;100.00;103848.09;5001532;28;20503;-82
2021/12/18 09:54:31;;;;;;;20.70;5.78;;;;;;;7.08;100.00;103851.66;4989768;28;20034;-82
2021/12/18 09:56:57;;;;;;;18.60;5.10;;;;;;;7.08;100.00;103838.28;5006192;28;20373;-82
2021/12/18 09:59:22;;;;;;;18.75;5.72;;;;;;;7.07;100.00;103836.53;4992278;28;20029;-82
2021/12/18 10:01:48;;;;;;;20.17;6.10;;;;;;;7.07;100.00;103841.88;4991481;28;20025;-82
2021/12/18 10:04:43;;;;;;;19.05;5.70;;;;;;;7.12;100.00;103837.34;5009006;28;20060;-82
2021/12/18 10:07:16;;;;;;;15.52;4.70;;;;;;;7.07;100.00;103836.53;4970147;28;20502;-82
2021/12/18 10:09:41;;;;;;;16.73;4.65;;;;;;;7.05;99.60;103824.94;4983281;28;20397;-81
2021/12/18 10:12:16;;;;;;;16.60;4.53;;;;;;;7.07;100.00;103825.84;5008963;28;20108;-82
2021/12/18 10:14:52;;;;;;;17.73;4.18;;;;;;;7.07;99.86;103824.94;4999538;28;20033;-82
2021/12/18 10:17:32;;;;;;;13.52;4.38;;;;;;;7.09;100.00;103823.16;5009934;28;20124;-82
2021/12/18 10:20:09;;;;;;;14.90;4.60;;;;;;;7.12;100.00;103823.13;5011563;28;20056;-82
2021/12/18 10:22:36;;;;;;;12.75;3.65;;;;;;;7.09;99.60;103828.50;5008519;28;20030;-82
2021/12/18 10:25:06;;;;;;;14.68;3.90;;;;;;;7.11;99.88;103816.84;4991488;28;20426;-82
2021/12/18 10:27:32;;;;;;;14.50;4.13;;;;;;;7.12;99.91;103815.09;5013132;28;20022;-82
2021/12/18 10:30:20;;;;;;;13.18;4.38;;;;;;;7.15;99.76;103807.91;5006815;28;20063;-82
2021/12/18 10:33:06;;;;;;;17.52;4.82;;;;;;;7.14;99.42;103816.81;4978636;28;20026;-82
2021/12/18 10:35:41;;;;;;;19.23;4.80;;;;;;;7.12;99.32;103815.09;4984662;28;20553;-82
2021/12/18 10:38:08;;;;;;;13.15;4.07;;;;;;;7.11;99.52;103813.31;5000330;28;20109;-82
2021/12/18 10:40:45;;;;;;;13.50;3.90;;;;;;;7.10;99.75;103815.09;4986586;28;20088;-82
2021/12/18 10:43:17;;;;;;;16.10;4.03;;;;;;;7.08;99.67;103821.38;4981749;28;20155;-82
2021/12/18 10:45:42;;;;;;;16.88;3.80;;;;;;;7.07;99.49;103811.56;5008329;28;20034;-82
2021/12/18 10:48:12;;;;;;;11.70;3.10;;;;;;;7.07;99.78;103811.56;5008892;28;20052;-82
2021/12/18 10:50:45;;;;;;;8.77;3.42;;;;;;;7.04;98.82;103814.28;4991092;28;20033;-82
2021/12/18 10:53:14;;;;;;;14.35;3.60;;;;;;;7.00;99.05;103810.75;4991999;28;20038;-82
2021/12/18 10:55:57;;;;;;;12.55;3.78;;;;;;;6.99;99.57;103815.19;4991069;28;20481;-82
2021/12/18 10:58:34;;;;;;;13.40;3.33;;;;;;;7.00;99.41;103808.97;4993651;28;20037;-82
2021/12/18 11:01:11;;;;;;;13.02;3.63;;;;;;;7.02;99.12;103806.28;4987922;28;20128;-82
2021/12/18 11:03:44;;;;;;;14.85;3.63;;;;;;;7.03;99.08;103807.16;5010388;28;20033;-82
2021/12/18 11:06:14;;;;;;;9.18;2.97;;;;;;;7.04;98.68;103808.94;5018319;28;20057;-82
2021/12/18 11:09:04;;;;;;;6.57;2.42;;;;;;;7.05;98.62;103808.03;5022805;28;20068;-82
2021/12/18 11:14:14;;;;;;;12.18;2.97;;;;;;;7.02;97.75;103810.75;5020960;28;20626;-82
2021/12/18 11:16:46;;;;;;;7.22;2.42;;;;;;;7.02;98.53;103816.09;5007441;28;20125;-82
2021/12/18 11:19:14;;;;;;;9.95;3.42;;;;;;;7.03;98.85;103801.78;4993094;28;20045;-82
2021/12/18 11:21:50;;;;;;;13.30;3.45;;;;;;;7.06;98.89;103799.09;5007374;28;20034;-82
2021/12/18 11:24:16;;;;;;;13.63;3.72;;;;;;;7.03;98.26;103805.38;4964207;28;20030;-82
2021/12/18 11:26:55;;;;;;;10.25;3.55;;;;;;;6.99;98.17;103801.81;5022389;28;20380;-82
2021/12/18 11:29:34;;;;;;;12.95;3.50;;;;;;;7.00;98.45;103800.06;4993518;28;20030;-82
2021/12/18 11:32:00;;;;;;;12.93;3.70;;;;;;;7.01;98.83;103796.47;5011265;28;20034;-82
2021/12/18 11:34:26;;;;;;;13.18;3.90;;;;;;;7.03;99.22;103794.69;5028758;28;20459;-82
2021/12/18 11:36:53;;;;;;;12.55;3.83;;;;;;;7.00;99.05;103803.63;5010179;28;20034;-82
2021/12/18 11:39:22;;;;;;;14.82;4.50;;;;;;;7.02;99.13;103792.91;5009445;28;20037;-82
2021/12/18 11:41:50;;;;;;;13.43;4.40;;;;;;;7.05;99.25;103805.34;4991653;28;20022;-82
2021/12/18 11:44:29;;;;;;;13.02;3.88;;;;;;;7.04;99.25;103790.19;4992140;28;20128;-82
2021/12/18 11:46:54;;;;;;;11.90;3.65;;;;;;;7.00;99.28;103795.59;5008864;28;20084;-82
2021/12/18 11:49:22;;;;;;;13.15;4.75;;;;;;;7.00;99.57;103784.91;4990643;28;20524;-82
2021/12/18 11:52:04;;;;;;;17.08;5.10;;;;;;;7.03;99.62;103794.69;4992300;28;20022;-82
2021/12/18 11:54:54;;;;;;;19.35;6.07;;;;;;;7.01;99.69;103791.13;5002905;28;20031;-82
2021/12/18 11:57:48;;;;;;;20.60;5.40;;;;;;;7.00;99.92;103781.34;4979618;28;20052;-82
2021/12/18 12:00:21;;;;;;;18.25;4.63;;;;;;;7.00;99.93;103776.88;5007981;28;20084;-82
2021/12/18 12:02:54;;;;;;;14.85;4.60;;;;;;;6.97;99.33;103776.91;4998992;28;20034;-82
2021/12/18 12:05:46;;;;;;;12.20;3.45;;;;;;;6.94;99.31;103768.94;4990736;28;20038;-82
2021/12/18 12:08:34;;;;;;;10.20;3.10;;;;;;;6.93;99.07;103766.28;5008443;28;20052;-82
2021/12/18 12:11:15;;;;;;;16.77;4.53;;;;;;;6.90;98.93;103775.19;5009913;28;20121;-82
2021/12/18 12:14:08;;;;;;;11.55;3.65;;;;;;;6.96;99.83;103761.75;4991052;28;20033;-82
2021/12/18 12:16:57;;;;;;;14.82;4.47;;;;;;;6.98;100.00;103759.97;5011766;28;20458;-82